Terminal Aerodrome Forecast
Issued by NWS Sterling, VA

Current Version | Previous Version | Graphics & Text | Print | Product List | Glossary On
Versions: 1 2 3 4 5 6 7 8 9 10 11 12 13 14 15 16 17 18 19 20 21
640
FTUS41 KLWX 212034 AAA
TAFDCA
TAF AMD
KDCA 212034Z 2121/2218 17011KT P6SM SCT070 SCT250
     FM220000 20004KT P6SM FEW060
     FM221200 20007KT P6SM SCT060=

USA.gov is the U.S. government's official web portal to all federal, state and local government web resources and services.